Time;durP1;ratioP1;P1;durP2;ratioP2;P2;SDS_P1;SDS_P2;PMS_P1;PMS_P2;Temp;Humidity;BMP_temperature;BMP_pressure;BME280_temperature;BME280_humidity;BME280_pressure;Samples;Min_cycle;Max_cycle;Signal;HPM_P1;HPM_P2
2023/04/07 00:02:19;;;;;;;1.00;0.80;;;21.10;67.40;;;;;;4939447;29;20476;-86
2023/04/07 00:04:48;;;;;;;1.20;0.93;;;21.10;67.30;;;;;;4939083;29;20926;-86
2023/04/07 00:07:14;;;;;;;1.10;1.00;;;21.10;67.30;;;;;;4939165;29;20500;-86
2023/04/07 00:09:41;;;;;;;1.20;0.90;;;21.10;67.40;;;;;;4939098;29;20541;-86
2023/04/07 00:12:08;;;;;;;1.10;0.93;;;21.10;67.40;;;;;;4938916;29;20486;-86
2023/04/07 00:14:35;;;;;;;1.03;0.80;;;21.10;67.40;;;;;;4939160;29;20447;-86
2023/04/07 00:17:01;;;;;;;1.30;0.97;;;21.10;67.50;;;;;;4939004;29;20455;-87
2023/04/07 00:19:28;;;;;;;1.20;1.00;;;21.10;67.40;;;;;;4939092;29;20435;-86
2023/04/07 00:21:56;;;;;;;1.10;0.83;;;21.10;67.50;;;;;;4939040;29;20448;-86
2023/04/07 00:24:23;;;;;;;1.10;0.90;;;21.10;67.50;;;;;;4938744;29;20444;-86
2023/04/07 00:26:50;;;;;;;1.37;0.90;;;21.00;67.30;;;;;;4939089;29;21036;-86
2023/04/07 00:29:17;;;;;;;1.00;0.80;;;21.10;67.50;;;;;;4938922;29;20462;-86
2023/04/07 00:31:43;;;;;;;1.40;0.90;;;21.10;67.60;;;;;;4938748;29;20608;-86
2023/04/07 00:34:10;;;;;;;1.57;1.00;;;21.00;67.30;;;;;;4938871;29;20447;-86
2023/04/07 00:36:37;;;;;;;1.50;1.00;;;21.20;67.60;;;;;;4938183;29;20551;-86
2023/04/07 00:39:05;;;;;;;1.30;1.10;;;21.00;67.30;;;;;;4938052;29;20466;-86
2023/04/07 00:41:34;;;;;;;1.10;0.80;;;21.10;67.50;;;;;;4938600;29;20454;-87
2023/04/07 00:44:01;;;;;;;1.10;0.93;;;21.00;67.30;;;;;;4938792;29;20439;-86
2023/04/07 00:46:28;;;;;;;1.53;1.00;;;21.00;67.30;;;;;;4938346;29;21010;-87
2023/04/07 00:48:55;;;;;;;1.00;0.80;;;21.00;67.30;;;;;;4938345;29;20446;-86
2023/04/07 00:51:22;;;;;;;1.10;0.90;;;21.00;67.40;;;;;;4938445;29;20494;-86
2023/04/07 00:53:49;;;;;;;1.40;0.90;;;21.00;67.40;;;;;;4938422;29;20451;-87
2023/04/07 00:56:17;;;;;;;1.10;0.80;;;21.00;67.50;;;;;;4938421;29;20454;-86
2023/04/07 00:58:44;;;;;;;1.13;0.90;;;21.00;67.50;;;;;;4938130;29;20451;-86
2023/04/07 01:01:15;;;;;;;1.40;1.10;;;21.00;67.40;;;;;;4938346;29;20451;-86
2023/04/07 01:03:49;;;;;;;1.10;0.80;;;21.00;67.40;;;;;;4938516;29;20783;-87
2023/04/07 01:06:18;;;;;;;1.10;0.90;;;21.00;67.50;;;;;;4938289;29;20566;-86
2023/04/07 01:08:51;;;;;;;1.17;1.07;;;21.00;67.50;;;;;;4938365;29;20799;-87
2023/04/07 01:11:25;;;;;;;1.30;1.07;;;21.00;67.40;;;;;;4938169;29;20557;-86
2023/04/07 01:13:53;;;;;;;1.07;0.87;;;21.00;68.40;;;;;;4938229;29;20451;-87
2023/04/07 01:16:24;;;;;;;1.20;1.07;;;21.00;67.50;;;;;;4938076;29;20443;-86
2023/04/07 01:18:54;;;;;;;1.20;1.03;;;21.00;67.70;;;;;;4937751;29;20442;-86
2023/04/07 01:21:26;;;;;;;1.10;0.90;;;21.00;67.70;;;;;;4937846;29;20960;-86
2023/04/07 01:24:05;;;;;;;1.87;0.90;;;21.00;67.60;;;;;;4937763;29;20976;-87
2023/04/07 01:26:34;;;;;;;1.50;1.20;;;21.00;67.50;;;;;;4937942;29;20449;-87
2023/04/07 01:29:26;;;;;;;1.20;1.00;;;21.00;67.50;;;;;;4937696;29;20442;-86
2023/04/07 01:31:55;;;;;;;1.07;0.87;;;21.00;67.60;;;;;;4937860;29;20493;-87
2023/04/07 01:34:25;;;;;;;1.00;0.80;;;21.00;67.50;;;;;;4937688;29;20448;-86
2023/04/07 01:36:54;;;;;;;1.10;0.90;;;21.00;67.50;;;;;;4937396;29;20596;-87
2023/04/07 01:39:22;;;;;;;1.10;0.90;;;21.00;67.60;;;;;;4937430;29;20449;-87
2023/04/07 01:41:50;;;;;;;1.37;1.00;;;20.90;67.50;;;;;;4937778;29;20804;-87
2023/04/07 01:44:18;;;;;;;1.20;1.07;;;21.00;67.60;;;;;;4937730;29;20490;-86
2023/04/07 01:46:46;;;;;;;1.10;0.90;;;20.90;67.50;;;;;;4937160;29;20479;-86
2023/04/07 01:49:14;;;;;;;1.63;1.07;;;21.10;67.70;;;;;;4937235;29;20494;-86
2023/04/07 01:51:42;;;;;;;1.30;1.10;;;20.90;67.40;;;;;;4937384;29;20478;-86
2023/04/07 01:54:10;;;;;;;1.00;0.73;;;21.00;67.60;;;;;;4937666;29;20443;-87
2023/04/07 01:56:36;;;;;;;1.30;1.20;;;20.90;67.50;;;;;;4937322;29;20438;-87
2023/04/07 01:59:03;;;;;;;1.30;1.10;;;21.00;67.60;;;;;;4937142;29;20435;-86
2023/04/07 02:01:30;;;;;;;1.10;0.93;;;20.90;67.60;;;;;;4937070;29;20543;-86
2023/04/07 02:04:06;;;;;;;1.10;0.90;;;21.00;67.70;;;;;;4937363;29;20446;-85
2023/04/07 02:06:37;;;;;;;1.00;0.80;;;20.90;67.60;;;;;;4937124;29;20522;-86
2023/04/07 02:09:07;;;;;;;1.10;0.93;;;21.10;67.90;;;;;;4937521;29;20435;-85
2023/04/07 02:11:35;;;;;;;3.20;1.20;;;20.90;67.70;;;;;;4937212;29;21011;-85
2023/04/07 02:14:06;;;;;;;1.57;1.00;;;20.90;67.70;;;;;;4937100;29;20487;-85
2023/04/07 02:16:33;;;;;;;1.10;0.90;;;20.90;67.70;;;;;;4937044;29;20439;-85
2023/04/07 02:19:02;;;;;;;1.07;0.90;;;20.90;67.70;;;;;;4936890;29;20449;-85
2023/04/07 02:21:30;;;;;;;3.43;1.00;;;20.90;67.70;;;;;;4936867;29;20961;-85
2023/04/07 02:24:00;;;;;;;1.10;0.90;;;20.90;67.70;;;;;;4937130;29;20941;-85
2023/04/07 02:26:27;;;;;;;1.23;1.13;;;20.90;67.50;;;;;;4936829;29;20446;-85
2023/04/07 02:28:53;;;;;;;1.17;0.90;;;20.90;67.50;;;;;;4936906;29;20443;-85
2023/04/07 02:31:20;;;;;;;1.10;0.90;;;20.90;67.70;;;;;;4919891;29;20450;-86
2023/04/07 02:33:47;;;;;;;1.23;0.80;;;21.00;67.80;;;;;;4947185;29;20888;-85
2023/04/07 02:36:15;;;;;;;1.10;1.00;;;20.90;67.60;;;;;;4950555;29;20501;-85
2023/04/07 02:38:42;;;;;;;1.10;0.90;;;20.90;68.70;;;;;;4937690;29;20497;-85
2023/04/07 02:41:09;;;;;;;1.00;0.80;;;20.90;67.80;;;;;;4936634;29;20941;-85
2023/04/07 02:43:36;;;;;;;1.10;0.90;;;20.90;67.80;;;;;;4936469;29;20944;-86
2023/04/07 02:46:03;;;;;;;1.00;0.80;;;20.90;67.90;;;;;;4936498;29;20467;-85
2023/04/07 02:48:29;;;;;;;1.20;0.83;;;20.90;67.80;;;;;;4936778;29;20439;-86
2023/04/07 02:50:56;;;;;;;1.30;0.80;;;20.90;67.80;;;;;;4936513;29;20438;-86
2023/04/07 02:53:25;;;;;;;1.00;0.80;;;20.90;67.90;;;;;;4936375;29;20984;-86
2023/04/07 02:55:51;;;;;;;1.10;1.00;;;20.90;67.80;;;;;;4936536;29;20635;-85
2023/04/07 02:58:18;;;;;;;1.30;0.80;;;20.90;67.80;;;;;;4903694;29;20447;-86
2023/04/07 03:00:45;;;;;;;1.10;0.90;;;20.90;67.80;;;;;;4935880;29;20446;-86
2023/04/07 03:03:12;;;;;;;1.00;0.80;;;20.90;67.80;;;;;;4936291;29;20448;-86
2023/04/07 03:05:39;;;;;;;1.03;0.80;;;20.80;67.70;;;;;;4936639;29;20442;-86
2023/04/07 03:08:05;;;;;;;1.13;0.97;;;20.90;67.80;;;;;;4936100;29;21092;-86
2023/04/07 03:10:34;;;;;;;1.53;0.90;;;20.90;67.80;;;;;;4936358;29;20457;-86
2023/04/07 03:13:01;;;;;;;1.20;0.90;;;20.90;67.80;;;;;;4936424;29;20501;-86
2023/04/07 03:15:28;;;;;;;1.30;0.97;;;20.80;67.70;;;;;;4936588;29;20522;-85
2023/04/07 03:17:55;;;;;;;1.10;0.97;;;20.90;67.80;;;;;;4936136;29;20952;-86
2023/04/07 03:20:22;;;;;;;1.10;0.90;;;20.90;67.80;;;;;;4936412;29;20443;-86
2023/04/07 03:22:49;;;;;;;1.00;0.83;;;20.90;67.80;;;;;;4936563;29;20439;-86
2023/04/07 03:25:16;;;;;;;1.10;0.90;;;20.90;67.80;;;;;;4936533;29;20563;-86
2023/04/07 03:27:45;;;;;;;1.10;0.93;;;20.80;67.60;;;;;;4936177;29;20478;-86
2023/04/07 03:30:12;;;;;;;1.20;1.00;;;20.90;67.80;;;;;;4919279;29;20454;-85
2023/04/07 03:32:39;;;;;;;1.10;0.90;;;20.80;67.60;;;;;;4936007;29;20484;-86
2023/04/07 03:35:06;;;;;;;1.00;0.80;;;20.80;67.70;;;;;;4936427;29;20447;-85
2023/04/07 03:37:33;;;;;;;1.00;0.80;;;20.80;67.80;;;;;;4936343;29;20467;-86
2023/04/07 03:40:00;;;;;;;1.10;0.93;;;20.80;67.70;;;;;;4936013;29;20447;-86
2023/04/07 03:42:27;;;;;;;1.20;0.90;;;20.80;67.80;;;;;;4935935;29;20509;-86
2023/04/07 03:44:55;;;;;;;1.10;0.80;;;20.80;67.80;;;;;;4936103;29;20454;-85
2023/04/07 03:47:22;;;;;;;1.50;0.90;;;20.80;67.70;;;;;;4935846;29;20478;-86
2023/04/07 03:49:49;;;;;;;1.47;0.83;;;20.90;67.80;;;;;;4935878;29;20439;-86
2023/04/07 03:52:16;;;;;;;1.20;0.90;;;20.80;67.70;;;;;;4935973;29;20561;-87
2023/04/07 03:54:43;;;;;;;1.37;0.97;;;20.80;67.70;;;;;;4935923;29;20450;-86
2023/04/07 03:57:10;;;;;;;1.20;0.90;;;20.80;67.70;;;;;;4936067;29;20477;-86
2023/04/07 03:59:37;;;;;;;1.00;0.80;;;20.80;67.80;;;;;;4935789;29;20447;-86
2023/04/07 04:02:05;;;;;;;1.10;0.90;;;20.80;67.80;;;;;;4936175;29;20815;-86
2023/04/07 04:04:32;;;;;;;1.00;0.80;;;20.90;68.00;;;;;;4935972;29;20451;-87
2023/04/07 04:06:59;;;;;;;1.03;0.83;;;20.80;67.90;;;;;;4935680;29;20471;-86
2023/04/07 04:09:26;;;;;;;1.20;0.80;;;20.80;67.80;;;;;;4936017;29;20442;-86
2023/04/07 04:11:53;;;;;;;1.20;0.90;;;20.80;68.00;;;;;;4935901;29;20451;-86
2023/04/07 04:14:20;;;;;;;1.20;1.00;;;20.80;67.90;;;;;;4939294;29;20443;-86
2023/04/07 04:16:46;;;;;;;1.23;1.00;;;20.80;68.00;;;;;;4939132;29;20873;-86
2023/04/07 04:19:15;;;;;;;1.10;1.00;;;20.80;68.00;;;;;;4939150;29;20473;-85
2023/04/07 04:21:41;;;;;;;2.10;1.03;;;20.80;68.00;;;;;;4939172;29;20446;-85
2023/04/07 04:24:08;;;;;;;1.10;1.00;;;20.80;68.00;;;;;;4939241;29;20472;-86
2023/04/07 04:26:35;;;;;;;1.10;0.90;;;20.80;68.00;;;;;;4938998;29;20439;-87
2023/04/07 04:29:02;;;;;;;1.13;0.87;;;20.80;68.10;;;;;;4939465;29;20537;-86
2023/04/07 04:31:29;;;;;;;1.30;0.97;;;20.80;68.00;;;;;;4939902;29;20450;-87
2023/04/07 04:33:56;;;;;;;1.10;0.80;;;20.80;68.00;;;;;;4938844;29;20573;-86
2023/04/07 04:36:25;;;;;;;1.20;1.00;;;20.80;68.10;;;;;;4939454;29;20474;-86
2023/04/07 04:38:54;;;;;;;1.10;0.97;;;20.80;68.10;;;;;;4938794;29;20458;-86
2023/04/07 04:41:21;;;;;;;1.33;1.13;;;20.80;68.10;;;;;;4939170;29;20444;-86
2023/04/07 04:43:47;;;;;;;1.20;1.00;;;20.90;68.30;;;;;;4940541;29;20457;-86
2023/04/07 04:46:14;;;;;;;1.10;0.80;;;20.80;68.10;;;;;;4940535;29;20474;-85
2023/04/07 04:48:41;;;;;;;1.00;0.70;;;20.90;68.20;;;;;;4939670;29;20451;-86
2023/04/07 04:51:08;;;;;;;1.10;0.90;;;20.90;68.20;;;;;;4940000;29;20470;-86
2023/04/07 04:53:36;;;;;;;1.10;0.80;;;20.80;68.10;;;;;;4938648;29;20494;-86
2023/04/07 04:56:02;;;;;;;1.17;0.90;;;20.70;68.00;;;;;;4938888;29;20435;-86
2023/04/07 04:58:30;;;;;;;1.97;0.77;;;20.80;68.10;;;;;;4938619;29;20447;-86
2023/04/07 05:00:59;;;;;;;1.10;0.90;;;20.80;68.10;;;;;;4938680;29;20537;-86
2023/04/07 05:03:26;;;;;;;1.00;0.80;;;20.70;68.10;;;;;;4938654;29;20527;-85
2023/04/07 05:05:53;;;;;;;1.30;0.70;;;20.70;68.00;;;;;;4938356;29;20447;-85
2023/04/07 05:08:20;;;;;;;1.20;0.90;;;20.70;68.10;;;;;;4938472;29;20454;-86
2023/04/07 05:10:48;;;;;;;1.10;0.80;;;20.70;68.00;;;;;;4938511;29;20450;-86
2023/04/07 05:13:15;;;;;;;1.40;0.90;;;20.70;68.10;;;;;;4938556;29;20493;-86
2023/04/07 05:15:42;;;;;;;1.07;0.80;;;20.70;68.10;;;;;;4951682;28;20445;-86
2023/04/07 05:18:09;;;;;;;1.20;1.00;;;20.70;68.10;;;;;;4957107;29;20457;-86
2023/04/07 05:20:36;;;;;;;1.20;1.10;;;20.80;68.30;;;;;;4969951;29;20475;-86
2023/04/07 05:23:02;;;;;;;1.20;1.00;;;20.70;67.90;;;;;;4971060;28;20446;-86
2023/04/07 05:25:29;;;;;;;1.30;0.90;;;20.70;68.00;;;;;;4957424;29;20442;-86
2023/04/07 05:27:58;;;;;;;1.10;0.97;;;20.70;68.00;;;;;;4957156;29;20446;-86
2023/04/07 05:30:25;;;;;;;1.00;0.80;;;20.70;68.20;;;;;;4957345;29;20818;-85
2023/04/07 05:32:52;;;;;;;0.97;0.73;;;20.70;68.10;;;;;;4940620;29;20544;-86
2023/04/07 05:35:19;;;;;;;1.30;1.00;;;20.70;68.10;;;;;;4957046;29;20453;-85
2023/04/07 05:37:46;;;;;;;1.13;1.03;;;20.70;68.10;;;;;;4957116;29;20541;-86
2023/04/07 05:40:14;;;;;;;1.13;1.00;;;20.70;68.00;;;;;;4956912;29;20454;-85
2023/04/07 05:42:41;;;;;;;1.10;0.90;;;20.70;68.10;;;;;;4956682;29;20891;-85
2023/04/07 05:45:10;;;;;;;1.10;1.00;;;20.70;68.00;;;;;;4956873;29;20453;-86
2023/04/07 05:47:37;;;;;;;1.00;0.73;;;20.70;68.10;;;;;;4956441;29;20477;-85
2023/04/07 05:50:05;;;;;;;1.20;1.00;;;20.90;68.40;;;;;;4956664;29;20449;-86
2023/04/07 05:52:31;;;;;;;1.13;0.90;;;20.70;68.10;;;;;;4956602;29;20450;-85
2023/04/07 05:54:58;;;;;;;1.10;0.87;;;20.70;68.10;;;;;;4956478;29;20468;-84
2023/04/07 05:57:26;;;;;;;1.13;0.97;;;20.70;68.10;;;;;;4956450;29;20442;-85
2023/04/07 05:59:53;;;;;;;1.10;0.87;;;20.70;68.30;;;;;;4956446;29;20442;-85
2023/04/07 06:02:21;;;;;;;1.23;1.13;;;20.70;68.10;;;;;;4956403;29;20442;-86
2023/04/07 06:04:48;;;;;;;1.10;0.90;;;20.70;68.20;;;;;;4956536;29;20438;-86
2023/04/07 06:07:15;;;;;;;1.07;0.80;;;20.70;68.30;;;;;;4956382;29;20893;-85
2023/04/07 06:09:42;;;;;;;1.00;0.80;;;20.70;68.20;;;;;;4956481;29;20449;-85
2023/04/07 06:12:11;;;;;;;1.07;0.80;;;20.70;68.20;;;;;;4956088;29;20450;-86
2023/04/07 06:14:37;;;;;;;1.10;0.70;;;20.70;68.20;;;;;;4956355;29;20620;-85
2023/04/07 06:17:04;;;;;;;1.10;0.70;;;20.70;68.20;;;;;;4955870;29;20445;-85
2023/04/07 06:19:33;;;;;;;1.10;0.83;;;20.80;68.40;;;;;;4955991;29;20450;-86
2023/04/07 06:22:00;;;;;;;1.10;0.90;;;20.70;68.40;;;;;;4952901;29;20460;-85
2023/04/07 06:24:27;;;;;;;1.20;0.90;;;20.60;68.20;;;;;;4946071;29;20434;-85
2023/04/07 06:26:55;;;;;;;2.57;0.87;;;20.70;67.60;;;;;;4944745;29;20467;-84
2023/04/07 06:29:22;;;;;;;1.10;0.90;;;20.70;68.80;;;;;;4946372;29;20453;-84
2023/04/07 06:31:49;;;;;;;1.00;0.80;;;20.70;68.10;;;;;;4943638;29;20439;-85
2023/04/07 06:34:16;;;;;;;1.03;0.80;;;20.70;68.30;;;;;;4944645;29;20500;-84
2023/04/07 06:36:44;;;;;;;1.23;1.00;;;20.70;68.30;;;;;;4944895;29;20500;-85
2023/04/07 06:39:11;;;;;;;1.50;1.37;;;20.70;68.20;;;;;;4944001;29;20977;-84
2023/04/07 06:41:41;;;;;;;1.40;0.97;;;20.60;69.00;;;;;;4944190;29;20438;-85
2023/04/07 06:44:09;;;;;;;0.93;0.67;;;20.70;68.30;;;;;;4943563;29;20447;-84
2023/04/07 06:46:36;;;;;;;1.10;0.80;;;20.60;68.20;;;;;;4944578;29;20473;-83
2023/04/07 06:49:03;;;;;;;1.20;0.87;;;20.70;68.30;;;;;;4938590;29;20443;-85
2023/04/07 06:51:30;;;;;;;1.10;1.00;;;20.60;68.30;;;;;;4935892;29;20451;-84
2023/04/07 06:53:59;;;;;;;1.53;0.80;;;20.60;68.30;;;;;;4936394;29;20497;-84
2023/04/07 06:56:26;;;;;;;2.20;0.80;;;20.70;68.10;;;;;;4936287;29;20447;-84
2023/04/07 06:58:53;;;;;;;2.60;1.10;;;20.60;68.20;;;;;;4939322;29;20455;-84
2023/04/07 07:01:19;;;;;;;1.23;0.97;;;20.80;68.40;;;;;;4938032;29;20457;-85
2023/04/07 07:03:46;;;;;;;2.00;0.90;;;20.70;68.40;;;;;;4936082;29;20447;-84
2023/04/07 07:06:13;;;;;;;2.00;1.13;;;20.70;68.30;;;;;;4936206;29;20477;-86
2023/04/07 07:08:53;;;;;;;1.10;0.90;;;20.70;68.50;;;;;;4936776;29;20453;-86
2023/04/07 07:11:21;;;;;;;1.30;0.80;;;20.70;68.80;;;;;;4937200;29;20434;-85
2023/04/07 07:13:48;;;;;;;2.23;0.90;;;20.70;68.70;;;;;;4936110;29;21031;-85
2023/04/07 07:16:15;;;;;;;1.50;0.97;;;20.70;68.90;;;;;;4935834;29;20957;-86
2023/04/07 07:18:41;;;;;;;1.10;1.00;;;20.70;68.90;;;;;;4935624;29;20451;-86
2023/04/07 07:21:09;;;;;;;1.30;1.10;;;20.70;69.10;;;;;;4935923;29;20458;-85
2023/04/07 07:23:35;;;;;;;1.37;1.10;;;20.70;69.00;;;;;;4943678;29;20454;-85
2023/04/07 07:26:03;;;;;;;1.07;0.80;;;20.70;69.10;;;;;;4935694;29;20442;-85
2023/04/07 07:28:31;;;;;;;1.77;1.10;;;20.70;69.10;;;;;;4936237;29;20442;-86
2023/04/07 07:30:58;;;;;;;1.40;1.03;;;20.70;69.20;;;;;;4935995;29;20984;-84
2023/04/07 07:33:25;;;;;;;4.53;1.20;;;20.70;69.10;;;;;;4935927;29;20483;-85
2023/04/07 07:35:52;;;;;;;1.97;1.20;;;20.70;69.20;;;;;;4936044;29;20477;-85
2023/04/07 07:38:19;;;;;;;1.30;1.10;;;20.70;69.20;;;;;;4935919;29;20458;-86
2023/04/07 07:40:46;;;;;;;1.10;0.87;;;20.70;69.20;;;;;;4935991;29;20455;-85
2023/04/07 07:43:13;;;;;;;2.27;1.10;;;20.80;69.40;;;;;;4936042;29;20533;-85
2023/04/07 07:45:41;;;;;;;1.20;0.90;;;20.70;69.30;;;;;;4935616;29;21036;-84
2023/04/07 07:48:08;;;;;;;1.00;0.87;;;20.70;70.30;;;;;;4939370;29;20478;-87
2023/04/07 07:50:35;;;;;;;1.77;1.20;;;20.70;69.40;;;;;;4939534;29;20445;-85
2023/04/07 07:53:02;;;;;;;1.10;0.80;;;20.70;69.30;;;;;;4939410;29;20897;-84
2023/04/07 07:55:28;;;;;;;1.10;0.90;;;20.70;69.20;;;;;;4939435;29;20550;-85
2023/04/07 07:57:59;;;;;;;1.30;0.97;;;20.70;69.40;;;;;;4939099;29;20439;-83
2023/04/07 08:00:28;;;;;;;1.40;1.20;;;20.70;69.50;;;;;;4939102;29;20537;-83
2023/04/07 08:02:56;;;;;;;3.87;1.00;;;20.70;69.40;;;;;;4939413;29;20482;-81
2023/04/07 08:05:23;;;;;;;3.40;1.00;;;20.70;69.50;;;;;;4941054;29;20454;-81
2023/04/07 08:07:50;;;;;;;3.37;0.97;;;20.70;69.50;;;;;;4951241;29;20465;-82
2023/04/07 08:10:19;;;;;;;1.60;1.10;;;20.70;69.70;;;;;;4949684;29;20826;-82
2023/04/07 08:12:45;;;;;;;1.80;1.10;;;20.70;69.30;;;;;;4944431;29;20439;-84
2023/04/07 08:15:12;;;;;;;1.97;1.13;;;20.70;69.20;;;;;;4939133;29;20500;-82
2023/04/07 08:17:39;;;;;;;1.70;1.13;;;20.70;69.40;;;;;;4939076;29;20443;-83
2023/04/07 08:20:10;;;;;;;1.53;1.10;;;20.70;68.90;;;;;;4939141;29;20539;-86
2023/04/07 08:22:37;;;;;;;1.67;1.13;;;20.70;68.00;;;;;;4938683;29;20938;-83
2023/04/07 08:25:04;;;;;;;1.60;1.00;;;20.70;68.50;;;;;;4938431;29;20455;-84
2023/04/07 08:27:31;;;;;;;1.93;1.20;;;20.70;68.80;;;;;;4938298;29;20451;-84
2023/04/07 08:30:00;;;;;;;4.70;1.23;;;20.70;69.10;;;;;;4938563;29;20451;-84
2023/04/07 08:32:35;;;;;;;2.03;1.20;;;20.70;69.30;;;;;;4938252;29;20473;-84
2023/04/07 08:35:01;;;;;;;2.17;1.00;;;20.70;70.30;;;;;;4938110;29;20526;-86
2023/04/07 08:37:30;;;;;;;1.07;0.83;;;20.70;69.30;;;;;;4937997;29;20493;-85
2023/04/07 08:39:57;;;;;;;1.33;1.23;;;20.70;69.40;;;;;;4938495;29;20457;-83
2023/04/07 08:42:28;;;;;;;1.20;0.90;;;20.70;69.40;;;;;;4938422;29;20457;-85
2023/04/07 08:44:56;;;;;;;1.10;0.90;;;20.70;69.50;;;;;;4938605;29;20446;-83
2023/04/07 08:47:25;;;;;;;1.93;0.90;;;20.70;69.30;;;;;;4938544;29;20478;-83
2023/04/07 08:49:53;;;;;;;2.67;1.00;;;20.70;69.20;;;;;;4939826;29;20447;-83
2023/04/07 08:52:23;;;;;;;1.73;1.13;;;20.70;69.20;;;;;;4938726;29;20446;-86
2023/04/07 08:54:52;;;;;;;2.50;1.10;;;20.70;69.10;;;;;;4939547;29;20495;-83
2023/04/07 08:57:19;;;;;;;3.57;1.00;;;20.70;69.10;;;;;;4937928;29;20450;-84
2023/04/07 08:59:50;;;;;;;1.20;0.90;;;20.70;69.10;;;;;;4937580;29;20447;-84
2023/04/07 09:02:17;;;;;;;2.50;0.93;;;20.70;69.10;;;;;;4938494;29;20454;-84
2023/04/07 09:04:45;;;;;;;1.47;1.20;;;20.70;69.00;;;;;;4938212;29;20443;-84
2023/04/07 09:07:12;;;;;;;1.10;0.87;;;20.70;69.10;;;;;;4938192;29;20467;-84
2023/04/07 09:09:41;;;;;;;1.20;1.10;;;20.70;69.20;;;;;;4938001;29;20455;-84
2023/04/07 09:12:10;;;;;;;2.50;1.33;;;20.70;69.20;;;;;;4938245;29;20478;-84
2023/04/07 09:14:36;;;;;;;1.40;1.00;;;20.70;69.30;;;;;;4937947;29;20486;-84
2023/04/07 09:17:03;;;;;;;1.40;1.10;;;20.70;69.20;;;;;;4938027;29;20455;-84
2023/04/07 09:19:31;;;;;;;2.77;1.00;;;20.70;69.10;;;;;;4937982;29;20447;-84
2023/04/07 09:21:57;;;;;;;2.60;1.10;;;20.70;69.10;;;;;;4937771;29;20453;-84
2023/04/07 09:24:25;;;;;;;1.30;0.90;;;20.70;69.20;;;;;;4938007;29;20451;-83
2023/04/07 09:27:10;;;;;;;1.20;0.90;;;20.70;69.20;;;;;;4937844;29;20446;-86
2023/04/07 09:29:39;;;;;;;2.37;0.90;;;20.70;69.10;;;;;;4938397;29;20443;-86
2023/04/07 09:32:06;;;;;;;1.87;1.40;;;20.70;69.00;;;;;;4937933;29;20446;-86
2023/04/07 09:34:34;;;;;;;1.83;1.00;;;20.70;69.00;;;;;;4938164;29;20490;-84
2023/04/07 09:37:01;;;;;;;1.10;1.00;;;20.70;69.00;;;;;;4937362;29;20477;-84
2023/04/07 09:39:28;;;;;;;1.10;0.87;;;20.70;69.00;;;;;;4937696;29;20942;-84
2023/04/07 09:41:55;;;;;;;1.50;1.40;;;20.80;69.00;;;;;;4937319;29;20447;-85
2023/04/07 09:44:23;;;;;;;1.20;1.10;;;20.80;68.90;;;;;;4937659;29;20462;-84
2023/04/07 09:46:51;;;;;;;2.17;1.00;;;20.80;68.50;;;;;;4937267;29;20489;-84
2023/04/07 09:49:20;;;;;;;1.10;0.80;;;20.80;68.50;;;;;;4937332;29;20447;-83
2023/04/07 09:51:54;;;;;;;1.10;0.80;;;20.80;68.50;;;;;;4937503;29;20443;-84
2023/04/07 09:54:35;;;;;;;4.50;0.90;;;20.80;68.40;;;;;;4937376;29;20500;-86
2023/04/07 09:57:02;;;;;;;1.03;0.83;;;20.80;68.50;;;;;;4937238;29;20447;-82
2023/04/07 09:59:30;;;;;;;2.10;0.90;;;20.80;68.50;;;;;;4937192;29;20440;-83
2023/04/07 10:01:58;;;;;;;1.30;1.00;;;20.80;68.40;;;;;;4937078;29;20498;-83
2023/04/07 10:04:26;;;;;;;1.30;0.83;;;20.80;68.20;;;;;;4936998;29;20447;-82
2023/04/07 10:06:53;;;;;;;1.00;0.80;;;20.80;68.30;;;;;;4936705;29;20546;-82
2023/04/07 10:09:20;;;;;;;1.10;0.90;;;20.80;68.30;;;;;;4937215;29;20439;-83
2023/04/07 10:11:48;;;;;;;1.10;0.90;;;20.80;68.20;;;;;;4937312;29;20451;-83
2023/04/07 10:14:16;;;;;;;1.10;0.77;;;20.80;68.40;;;;;;4937002;29;20502;-83
2023/04/07 10:16:43;;;;;;;3.10;0.80;;;20.80;68.60;;;;;;4936975;29;20469;-83
2023/04/07 10:19:14;;;;;;;14.37;1.73;;;20.80;68.50;;;;;;4936795;29;20992;-85
2023/04/07 10:21:42;;;;;;;1.20;0.90;;;20.80;68.60;;;;;;4936821;29;20450;-85
2023/04/07 10:24:23;;;;;;;4.83;1.10;;;20.80;68.80;;;;;;4936729;29;20446;-83
2023/04/07 10:26:53;;;;;;;1.00;0.80;;;20.80;68.90;;;;;;4936745;29;20505;-84
2023/04/07 10:29:20;;;;;;;1.20;1.00;;;20.80;69.10;;;;;;4936615;29;20443;-84
2023/04/07 10:31:47;;;;;;;1.30;1.00;;;20.90;69.30;;;;;;4937525;29;20453;-85
2023/04/07 10:34:17;;;;;;;1.13;0.80;;;20.70;68.90;;;;;;4936751;29;20489;-83
2023/04/07 10:37:08;;;;;;;1.13;0.77;;;20.80;69.10;;;;;;4919854;29;21028;-83
2023/04/07 10:39:36;;;;;;;1.10;0.97;;;20.80;69.20;;;;;;4936760;29;20447;-83
2023/04/07 10:42:04;;;;;;;1.60;1.03;;;20.70;69.10;;;;;;4938026;29;20447;-84
2023/04/07 10:44:59;;;;;;;1.10;0.90;;;20.70;69.20;;;;;;4937248;29;20447;-83
2023/04/07 10:47:26;;;;;;;1.20;0.83;;;20.70;69.20;;;;;;4942788;29;20470;-84
2023/04/07 10:50:20;;;;;;;2.40;0.80;;;20.70;69.20;;;;;;4941654;29;20439;-84
2023/04/07 10:52:47;;;;;;;1.00;0.80;;;20.70;69.10;;;;;;4936669;29;20443;-86
2023/04/07 10:55:33;;;;;;;1.10;0.80;;;20.70;70.00;;;;;;4937768;29;20858;-84
2023/04/07 10:58:23;;;;;;;1.10;0.87;;;20.70;69.00;;;;;;4936168;29;20968;-84
2023/04/07 11:01:19;;;;;;;1.10;0.80;;;20.70;69.00;;;;;;4936233;29;20445;-84
2023/04/07 11:03:59;;;;;;;1.10;0.90;;;20.70;69.00;;;;;;4936242;29;20448;-86
2023/04/07 11:06:28;;;;;;;1.13;0.80;;;20.70;69.00;;;;;;4936078;29;20478;-86
2023/04/07 11:08:55;;;;;;;1.10;0.90;;;20.70;69.10;;;;;;4936625;29;20802;-84
2023/04/07 11:11:41;;;;;;;1.17;0.80;;;20.70;69.00;;;;;;4936216;29;20452;-84
2023/04/07 11:14:08;;;;;;;1.00;0.80;;;20.80;69.20;;;;;;4936199;29;20868;-85
2023/04/07 11:16:38;;;;;;;1.20;0.90;;;20.70;69.00;;;;;;4936199;29;20451;-84
2023/04/07 11:19:04;;;;;;;1.10;0.90;;;20.70;68.90;;;;;;4936251;29;20435;-85
2023/04/07 11:21:33;;;;;;;1.00;0.80;;;20.70;68.80;;;;;;4937347;29;20932;-84
2023/04/07 11:24:00;;;;;;;1.07;0.83;;;20.80;68.80;;;;;;4940188;29;20945;-84
2023/04/07 11:26:28;;;;;;;1.50;0.80;;;20.70;68.50;;;;;;4939986;29;20784;-85
2023/04/07 11:28:57;;;;;;;1.30;1.00;;;20.90;68.80;;;;;;4922839;29;20502;-84
2023/04/07 11:31:25;;;;;;;1.10;0.90;;;20.90;68.80;;;;;;4940177;29;20449;-84
2023/04/07 11:33:56;;;;;;;1.27;0.83;;;20.70;68.50;;;;;;4939820;29;20480;-85
2023/04/07 11:36:31;;;;;;;1.10;0.90;;;20.80;68.80;;;;;;4939533;29;20572;-84
2023/04/07 11:39:00;;;;;;;1.10;1.00;;;20.70;68.80;;;;;;4939886;29;21004;-84
2023/04/07 11:41:31;;;;;;;1.10;0.80;;;20.70;68.70;;;;;;4939696;29;20447;-84
2023/04/07 11:44:05;;;;;;;1.60;0.80;;;20.70;68.80;;;;;;4939563;29;20450;-84
2023/04/07 11:46:32;;;;;;;1.47;0.90;;;20.70;68.80;;;;;;4939511;29;20482;-84
2023/04/07 11:49:09;;;;;;;1.00;0.80;;;20.70;68.90;;;;;;4940038;29;20443;-86
2023/04/07 11:51:36;;;;;;;1.20;0.87;;;20.80;68.90;;;;;;4939854;29;20438;-84
2023/04/07 11:54:04;;;;;;;1.00;0.90;;;20.70;68.70;;;;;;4939102;29;20446;-84
2023/04/07 11:56:41;;;;;;;1.10;0.80;;;20.80;68.70;;;;;;4939549;29;20545;-86
2023/04/07 11:59:07;;;;;;;1.10;0.90;;;20.70;68.50;;;;;;4939722;29;20798;-86
2023/04/07 12:01:41;;;;;;;1.33;1.17;;;20.70;68.40;;;;;;4939209;29;20523;-84
2023/04/07 12:04:13;;;;;;;1.00;0.90;;;20.80;68.50;;;;;;4939348;29;20523;-84
2023/04/07 12:06:41;;;;;;;1.50;0.90;;;20.80;68.60;;;;;;4939180;29;20468;-86
2023/04/07 12:09:24;;;;;;;1.07;0.83;;;20.70;68.40;;;;;;4939187;29;20439;-83
2023/04/07 12:11:51;;;;;;;1.10;1.00;;;20.70;68.50;;;;;;4939226;29;20447;-84
2023/04/07 12:14:18;;;;;;;1.10;0.80;;;20.80;68.50;;;;;;4939386;29;20441;-84
2023/04/07 12:16:45;;;;;;;1.10;0.97;;;20.70;68.50;;;;;;4939261;29;20486;-84
2023/04/07 12:19:12;;;;;;;1.33;0.90;;;20.80;68.50;;;;;;4938945;29;20803;-86
2023/04/07 12:21:39;;;;;;;1.00;0.80;;;20.80;68.50;;;;;;4939185;29;20466;-84
2023/04/07 12:24:06;;;;;;;2.10;0.87;;;20.80;68.50;;;;;;4939017;29;20455;-84
2023/04/07 12:26:34;;;;;;;1.30;1.13;;;20.80;68.60;;;;;;4938921;29;20447;-83
2023/04/07 12:29:03;;;;;;;1.00;0.70;;;20.80;68.70;;;;;;4938907;29;20443;-84
2023/04/07 12:31:31;;;;;;;1.00;0.80;;;20.80;68.80;;;;;;4939172;29;20447;-84
2023/04/07 12:33:57;;;;;;;1.00;0.80;;;20.70;68.60;;;;;;4937810;29;20802;-83
2023/04/07 12:36:24;;;;;;;1.10;0.90;;;20.80;68.70;;;;;;4921766;29;20498;-83
2023/04/07 12:38:51;;;;;;;1.07;0.80;;;20.70;68.60;;;;;;4938862;29;20451;-84
2023/04/07 12:41:18;;;;;;;1.10;0.83;;;20.70;68.80;;;;;;4938505;29;20949;-83
2023/04/07 12:43:46;;;;;;;1.10;0.87;;;20.70;68.60;;;;;;4938668;29;20933;-84
2023/04/07 12:46:14;;;;;;;1.00;0.80;;;20.70;68.70;;;;;;4938576;29;20510;-84
2023/04/07 12:48:41;;;;;;;1.00;0.80;;;20.70;68.60;;;;;;4937856;29;20442;-87
2023/04/07 12:51:08;;;;;;;1.00;0.70;;;20.70;68.50;;;;;;4938754;29;20461;-83
2023/04/07 12:53:35;;;;;;;1.10;0.80;;;20.70;68.60;;;;;;4938215;29;20944;-83
2023/04/07 12:56:01;;;;;;;1.00;0.70;;;20.70;68.50;;;;;;4938485;29;20486;-83